Time;durP1;ratioP1;P1;durP2;ratioP2;P2;SDS_P1;SDS_P2;PMS_P1;PMS_P2;Temp;Humidity;BMP_temperature;BMP_pressure;BME280_temperature;BME280_humidity;BME280_pressure;Samples;Min_cycle;Max_cycle;Signal;HPM_P1;HPM_P2
2022/05/13 00:00:43;;;;;;;7.78;3.40;;;;;;;11.08;75.95;99612.56;4983901;28;20369;-57
2022/05/13 00:03:09;;;;;;;8.13;3.70;;;;;;;11.20;76.59;99609.88;5003803;28;20580;-58
2022/05/13 00:05:35;;;;;;;8.00;3.40;;;;;;;11.24;75.18;99611.03;5003673;28;20054;-58
2022/05/13 00:08:00;;;;;;;7.60;3.55;;;;;;;11.07;75.01;99610.16;4985537;28;20117;-58
2022/05/13 00:10:26;;;;;;;5.80;3.22;;;;;;;11.14;75.84;99600.91;5004317;28;20356;-58
2022/05/13 00:12:51;;;;;;;7.80;3.10;;;;;;;11.17;74.62;99599.63;5005535;28;20042;-57
2022/05/13 00:15:21;;;;;;;7.55;3.15;;;;;;;10.93;75.79;99609.56;5005141;28;20030;-58
2022/05/13 00:17:47;;;;;;;6.63;3.40;;;;;;;10.85;75.94;99602.72;5005368;28;20038;-58
2022/05/13 00:20:13;;;;;;;7.80;3.55;;;;;;;10.73;76.90;99604.59;5005637;28;20026;-58
2022/05/13 00:22:49;;;;;;;8.65;3.42;;;;;;;10.48;77.82;99602.97;4997614;28;20270;-58
2022/05/13 00:25:16;;;;;;;10.65;3.35;;;;;;;10.56;77.23;99599.13;5005255;28;20022;-58
2022/05/13 00:27:42;;;;;;;7.93;3.55;;;;;;;10.62;76.64;99598.19;4998950;28;20513;-58
2022/05/13 00:30:10;;;;;;;10.60;4.00;;;;;;;10.51;77.19;99597.16;5002014;28;20030;-57
2022/05/13 00:32:36;;;;;;;8.20;3.63;;;;;;;10.49;77.46;99595.75;5006535;28;20049;-58
2022/05/13 00:35:03;;;;;;;9.60;3.97;;;;;;;10.55;77.36;99600.16;5004320;28;20022;-57
2022/05/13 00:37:29;;;;;;;13.20;4.00;;;;;;;10.54;77.29;99599.34;4994226;28;20343;-58
2022/05/13 00:39:54;;;;;;;11.27;3.90;;;;;;;10.68;76.95;99596.44;5006107;28;20041;-58
2022/05/13 00:42:22;;;;;;;8.65;4.05;;;;;;;10.74;76.54;99606.22;5004952;28;20071;-58
2022/05/13 00:44:48;;;;;;;6.07;3.58;;;;;;;10.64;76.74;99595.28;5000238;28;20175;-57
2022/05/13 00:47:13;;;;;;;7.68;3.63;;;;;;;10.62;76.86;99598.19;4986242;28;20117;-58
2022/05/13 00:49:39;;;;;;;11.32;4.07;;;;;;;10.56;76.77;99599.94;5005165;28;20048;-58
2022/05/13 00:52:06;;;;;;;8.15;3.58;;;;;;;10.42;76.70;99587.00;4985898;28;20423;-58
2022/05/13 00:54:31;;;;;;;8.13;4.10;;;;;;;10.39;77.30;99599.00;5000880;28;20030;-58
2022/05/13 00:56:58;;;;;;;6.03;3.15;;;;;;;10.38;77.30;99602.72;4970556;28;20026;-58
2022/05/13 00:59:25;;;;;;;11.20;3.80;;;;;;;10.34;77.58;99596.19;5007820;28;20026;-58
2022/05/13 01:01:51;;;;;;;8.85;3.60;;;;;;;10.33;77.65;99597.22;4987838;28;20089;-57
2022/05/13 01:04:17;;;;;;;14.55;3.65;;;;;;;10.29;77.45;99604.94;5008623;28;20041;-58
2022/05/13 01:06:51;;;;;;;6.43;3.80;;;;;;;10.33;78.11;99606.09;4975778;28;20034;-58
2022/05/13 01:09:20;;;;;;;12.38;4.00;;;;;;;10.27;78.04;99606.19;5009031;28;20171;-59
2022/05/13 01:11:46;;;;;;;11.35;3.72;;;;;;;10.25;77.88;99600.22;4974093;28;20049;-58
2022/05/13 01:14:16;;;;;;;7.85;3.60;;;;;;;10.20;78.21;99600.09;4974007;28;20060;-58
2022/05/13 01:19:26;;;;;;;6.60;3.67;;;;;;;10.05;78.37;99598.69;5009009;28;20044;-57
2022/05/13 01:21:51;;;;;;;7.25;3.72;;;;;;;9.96;78.82;99594.72;5008310;28;20037;-57
2022/05/13 01:24:19;;;;;;;8.38;4.00;;;;;;;9.96;79.35;99605.44;5008920;28;20472;-58
2022/05/13 01:26:44;;;;;;;8.00;3.65;;;;;;;9.96;79.08;99612.63;5007745;28;20419;-58
2022/05/13 01:29:10;;;;;;;9.05;3.58;;;;;;;9.83;79.32;99619.00;5006668;28;20033;-57
2022/05/13 01:31:39;;;;;;;7.95;3.50;;;;;;;9.79;79.51;99617.84;4983364;28;20490;-58
2022/05/13 01:34:10;;;;;;;6.82;3.60;;;;;;;9.86;79.30;99621.19;5009156;28;20030;-57
2022/05/13 01:36:36;;;;;;;7.80;3.38;;;;;;;9.86;78.81;99626.56;5009121;28;20473;-58
2022/05/13 01:39:01;;;;;;;7.93;3.42;;;;;;;9.85;79.01;99627.63;5008475;28;20116;-58
2022/05/13 01:41:28;;;;;;;8.02;3.63;;;;;;;9.72;79.16;99621.41;5007839;28;20033;-57
2022/05/13 01:43:54;;;;;;;9.43;3.88;;;;;;;9.72;79.41;99626.75;5004634;28;20057;-58
2022/05/13 01:46:20;;;;;;;7.65;3.95;;;;;;;9.79;78.67;99625.88;5008952;28;20385;-58
2022/05/13 01:48:46;;;;;;;8.95;3.85;;;;;;;9.64;79.28;99632.44;5005442;28;20034;-59
2022/05/13 01:51:11;;;;;;;6.95;3.30;;;;;;;9.61;79.50;99624.88;4972938;28;20037;-57
2022/05/13 01:53:37;;;;;;;9.15;3.40;;;;;;;9.54;79.87;99624.13;4989915;28;20659;-60
2022/05/13 01:56:03;;;;;;;11.57;3.83;;;;;;;9.44;80.44;99621.19;5007950;28;20375;-58
2022/05/13 01:58:29;;;;;;;9.70;3.85;;;;;;;9.42;80.37;99625.94;5006484;28;20507;-58
2022/05/13 02:00:55;;;;;;;11.23;4.00;;;;;;;9.49;80.17;99621.31;5006743;28;20033;-60
2022/05/13 02:06:06;;;;;;;10.32;3.65;;;;;;;9.56;80.21;99632.75;5008248;28;20080;-58
2022/05/13 02:08:31;;;;;;;8.63;3.47;;;;;;;9.55;79.73;99630.28;5007645;28;20187;-58
2022/05/13 02:10:57;;;;;;;17.73;4.90;;;;;;;9.53;79.97;99637.72;5007437;28;20022;-58
2022/05/13 02:13:23;;;;;;;7.13;3.75;;;;;;;9.57;80.00;99639.72;5006559;28;20036;-59
2022/05/13 02:15:48;;;;;;;10.35;3.40;;;;;;;9.62;79.88;99629.16;4989703;28;20025;-58
2022/05/13 02:18:14;;;;;;;10.48;3.92;;;;;;;9.78;78.36;99630.38;5007705;28;20691;-59
2022/05/13 02:20:40;;;;;;;8.95;3.33;;;;;;;9.90;77.92;99627.75;5007701;28;20045;-59
2022/05/13 02:23:06;;;;;;;7.50;3.38;;;;;;;9.97;77.46;99636.50;5005987;28;20084;-63
2022/05/13 02:25:31;;;;;;;9.85;3.55;;;;;;;9.98;78.02;99632.78;5007036;28;20454;-58
2022/05/13 02:28:00;;;;;;;8.30;3.17;;;;;;;9.99;77.34;99629.06;5005824;28;20278;-59
2022/05/13 02:30:26;;;;;;;8.38;3.42;;;;;;;9.99;78.09;99629.06;5006369;28;20025;-59
2022/05/13 02:32:51;;;;;;;11.10;3.22;;;;;;;9.93;77.35;99641.50;4973695;28;20119;-59
2022/05/13 02:35:17;;;;;;;8.63;3.45;;;;;;;9.91;77.89;99635.56;5006569;28;20109;-59
2022/05/13 02:37:43;;;;;;;11.38;3.40;;;;;;;9.83;77.92;99633.19;4989484;28;20068;-58
2022/05/13 02:40:09;;;;;;;12.02;4.03;;;;;;;9.87;78.50;99628.22;5006333;28;20484;-59
2022/05/13 02:42:34;;;;;;;12.88;3.78;;;;;;;9.83;78.42;99635.84;5006302;28;20124;-59
2022/05/13 02:45:00;;;;;;;10.77;3.80;;;;;;;9.77;79.43;99634.09;5006045;28;20124;-59
2022/05/13 02:47:26;;;;;;;12.50;3.30;;;;;;;9.75;78.74;99638.06;5006944;28;20057;-59
2022/05/13 02:50:17;;;;;;;11.45;4.03;;;;;;;9.77;79.53;99633.28;5007247;28;20523;-58
2022/05/13 02:52:37;;;;;;;5.97;3.30;;;;;;;9.77;78.67;99635.97;5007079;28;20444;-59
2022/05/13 02:55:02;;;;;;;7.35;3.40;;;;;;;9.76;78.33;99631.66;5005884;28;20061;-58
2022/05/13 02:57:28;;;;;;;9.25;3.60;;;;;;;9.76;78.64;99631.66;5006123;28;20325;-58
2022/05/13 02:59:54;;;;;;;6.85;3.15;;;;;;;9.69;77.96;99637.09;5006230;28;20040;-58
2022/05/13 03:02:19;;;;;;;8.88;3.25;;;;;;;9.65;78.78;99626.03;4980716;28;20040;-58
2022/05/13 03:04:45;;;;;;;9.85;3.45;;;;;;;9.74;77.87;99628.41;5005793;28;20034;-58
2022/05/13 03:07:11;;;;;;;6.60;3.10;;;;;;;9.69;77.77;99629.88;4985564;28;20041;-58
2022/05/13 03:09:36;;;;;;;10.45;3.05;;;;;;;9.67;78.13;99625.81;5006041;28;20037;-59
2022/05/13 03:12:02;;;;;;;8.20;3.30;;;;;;;9.69;77.57;99621.84;5004857;28;20042;-59
2022/05/13 03:14:28;;;;;;;13.85;3.38;;;;;;;9.65;77.55;99623.34;5000724;28;20389;-58
2022/05/13 03:16:54;;;;;;;10.88;3.38;;;;;;;9.61;78.09;99624.88;5005494;28;20046;-58
2022/05/13 03:19:19;;;;;;;8.80;4.00;;;;;;;9.48;78.55;99627.69;5002168;28;20072;-58
2022/05/13 03:21:45;;;;;;;10.40;3.53;;;;;;;9.50;78.72;99622.94;4988549;28;20048;-58
2022/05/13 03:24:10;;;;;;;8.23;3.33;;;;;;;9.53;78.65;99621.66;5006110;28;20685;-58
2022/05/13 03:26:36;;;;;;;10.25;3.55;;;;;;;9.48;78.08;99620.50;5006527;28;20487;-58
2022/05/13 03:29:02;;;;;;;11.73;3.63;;;;;;;9.38;78.20;99616.72;5005219;28;20514;-57
2022/05/13 03:31:28;;;;;;;13.00;3.50;;;;;;;9.22;78.63;99626.16;5007792;28;20485;-60
2022/05/13 03:33:53;;;;;;;18.17;3.50;;;;;;;9.12;79.05;99618.66;5005844;28;20119;-58
2022/05/13 03:36:19;;;;;;;8.20;3.05;;;;;;;9.12;78.83;99621.34;4987560;28;20029;-58
2022/05/13 03:38:45;;;;;;;7.47;3.25;;;;;;;8.91;79.72;99622.59;4987160;28;20040;-58
2022/05/13 03:41:11;;;;;;;13.23;3.92;;;;;;;8.73;80.71;99623.38;5005848;28;20380;-58
2022/05/13 03:43:36;;;;;;;10.48;3.80;;;;;;;8.68;81.39;99619.75;4987863;28;20431;-58
2022/05/13 03:46:02;;;;;;;9.85;3.60;;;;;;;8.69;81.71;99629.41;5004981;28;20500;-58
2022/05/13 03:48:27;;;;;;;9.65;3.50;;;;;;;8.68;81.37;99636.59;5006222;28;20088;-58
2022/05/13 03:50:53;;;;;;;12.50;3.83;;;;;;;8.74;81.28;99634.91;4971973;28;20072;-58
2022/05/13 03:53:18;;;;;;;14.57;3.65;;;;;;;8.66;81.55;99638.66;5005382;28;20057;-58
2022/05/13 03:55:45;;;;;;;9.25;3.70;;;;;;;8.74;80.64;99640.25;5003525;28;20117;-60
2022/05/13 03:58:11;;;;;;;8.00;3.50;;;;;;;8.88;80.93;99641.75;5002910;28;20041;-58
2022/05/13 04:00:36;;;;;;;10.48;3.83;;;;;;;8.73;80.87;99636.75;5005108;28;20022;-59
2022/05/13 04:03:02;;;;;;;7.40;3.95;;;;;;;8.45;82.64;99636.41;5005465;28;20570;-59
2022/05/13 04:10:57;;;;;;;15.02;3.53;;;;;;;9.28;79.62;99634.13;5001254;28;20044;-59
2022/05/13 04:16:07;;;;;;;9.05;3.28;;;;;;;9.17;79.47;99629.50;5005065;28;20045;-59
2022/05/13 04:18:38;;;;;;;10.52;3.65;;;;;;;9.45;79.09;99652.22;4988439;28;20034;-60
2022/05/13 04:21:04;;;;;;;;;;;;;;;10.55;74.80;99657.25;5005575;28;20551;-57
2022/05/13 04:23:38;;;;;;;7.50;2.90;;;;;;;11.11;72.62;99659.59;4988076;28;19961;-59
2022/05/13 04:26:03;;;;;;;10.18;2.90;;;;;;;10.61;73.17;99652.00;4984642;28;20088;-59
2022/05/13 04:28:29;;;;;;;16.25;3.10;;;;;;;9.90;74.88;99655.31;5004477;28;20520;-59
2022/05/13 04:30:55;;;;;;;8.52;3.10;;;;;;;9.85;75.37;99652.53;5003962;28;20099;-59
2022/05/13 04:33:20;;;;;;;7.93;3.45;;;;;;;9.85;74.89;99654.38;5008174;28;20590;-59
2022/05/13 04:35:46;;;;;;;8.82;2.92;;;;;;;11.51;71.19;99648.91;5007278;28;20533;-60
2022/05/13 04:38:12;;;;;;;7.55;2.90;;;;;;;10.82;70.73;99666.72;5009373;28;20053;-58
2022/05/13 04:40:37;;;;;;;12.00;3.08;;;;;;;10.69;72.75;99665.91;5008842;28;20068;-58
2022/05/13 04:43:03;;;;;;;8.05;2.97;;;;;;;10.65;71.31;99662.03;5009766;28;20032;-58
2022/05/13 04:45:29;;;;;;;8.57;2.92;;;;;;;10.70;70.98;99669.41;5008737;28;20042;-59
2022/05/13 04:48:16;;;;;;;13.55;3.00;;;;;;;10.73;70.49;99672.44;5008047;28;20061;-59
2022/05/13 04:51:02;;;;;;;8.15;2.88;;;;;;;10.75;70.63;99682.91;5008304;28;20471;-58
2022/05/13 04:53:32;;;;;;;11.57;3.00;;;;;;;10.81;70.72;99690.06;5004237;28;20108;-59
2022/05/13 04:55:58;;;;;;;12.48;3.05;;;;;;;10.85;71.81;99693.88;5008181;28;20500;-58
2022/05/13 04:58:23;;;;;;;9.38;2.88;;;;;;;10.90;71.40;99691.31;5005280;28;20029;-58
2022/05/13 05:00:50;;;;;;;9.57;2.40;;;;;;;10.86;70.20;99698.22;5007416;28;20026;-58
2022/05/13 05:03:16;;;;;;;10.43;3.63;;;;;;;10.72;72.39;99696.78;5008775;28;20021;-58
2022/05/13 05:05:42;;;;;;;7.95;3.20;;;;;;;10.51;74.33;99703.53;5007820;28;20560;-58
2022/05/13 05:08:09;;;;;;;11.30;3.42;;;;;;;10.42;74.72;99707.59;5008940;28;20033;-58
2022/05/13 05:10:34;;;;;;;8.00;3.13;;;;;;;10.24;75.21;99709.25;5006425;28;20032;-58
2022/05/13 05:13:00;;;;;;;4.45;2.72;;;;;;;10.26;75.98;99711.69;5007900;28;20030;-58
2022/05/13 05:15:26;;;;;;;12.35;2.75;;;;;;;10.26;75.52;99709.00;5006512;28;20061;-58
2022/05/13 05:17:52;;;;;;;8.73;3.50;;;;;;;10.48;74.54;99720.91;5008185;28;20120;-58
2022/05/13 05:20:18;;;;;;;6.25;3.00;;;;;;;13.06;66.61;99718.53;5008121;28;20510;-58
2022/05/13 05:22:47;;;;;;;4.85;2.95;;;;;;;15.29;58.74;99723.00;5008201;28;20498;-59
2022/05/13 05:25:13;;;;;;;5.78;2.58;;;;;;;15.34;56.77;99730.31;4993840;28;20112;-59
2022/05/13 05:27:39;;;;;;;13.07;2.75;;;;;;;16.63;53.43;99728.88;5008777;28;20070;-59
2022/05/13 05:30:06;;;;;;;8.27;2.72;;;;;;;16.71;52.95;99728.31;5006786;28;20064;-59
2022/05/13 05:32:31;;;;;;;9.60;2.58;;;;;;;16.46;54.02;99729.94;4990489;28;20065;-58
2022/05/13 05:34:57;;;;;;;10.07;2.40;;;;;;;16.24;54.55;99732.06;5009117;28;20380;-59
2022/05/13 05:37:23;;;;;;;6.07;2.40;;;;;;;17.83;50.94;99730.84;5008003;28;20472;-58
2022/05/13 05:39:48;;;;;;;6.85;2.17;;;;;;;17.16;51.43;99730.19;5007892;28;20062;-59
2022/05/13 05:42:14;;;;;;;7.53;2.95;;;;;;;17.79;50.14;99740.56;5003951;28;20057;-59
2022/05/13 05:44:39;;;;;;;11.27;2.70;;;;;;;17.18;52.28;99738.06;5006842;28;20049;-59
2022/05/13 05:47:05;;;;;;;12.63;2.50;;;;;;;16.85;52.88;99748.38;5006928;28;20641;-59
2022/05/13 05:49:31;;;;;;;10.60;2.50;;;;;;;18.57;47.73;99743.69;5009108;28;20029;-59
2022/05/13 05:51:57;;;;;;;7.50;2.33;;;;;;;19.12;47.70;99753.31;5006704;28;20037;-59
2022/05/13 05:57:15;;;;;;;8.75;2.58;;;;;;;18.58;48.74;99751.56;5008006;28;20029;-59
2022/05/13 05:59:42;;;;;;;6.38;2.17;;;;;;;20.11;46.50;99753.84;5007642;28;20116;-59
2022/05/13 06:02:10;;;;;;;7.53;2.50;;;;;;;20.12;45.63;99759.00;5006365;28;20069;-59
2022/05/13 06:04:36;;;;;;;6.28;2.28;;;;;;;18.61;48.49;99761.06;5000598;28;20025;-59
2022/05/13 06:07:07;;;;;;;8.35;2.58;;;;;;;18.93;46.70;99757.84;5000816;28;20100;-59
2022/05/13 06:09:32;;;;;;;6.20;2.33;;;;;;;20.62;43.86;99755.88;5004164;28;20030;-60
2022/05/13 06:11:58;;;;;;;7.13;2.08;;;;;;;20.84;42.80;99755.22;5004094;28;20048;-58
2022/05/13 06:14:23;;;;;;;5.55;2.28;;;;;;;21.89;40.94;99762.88;4988777;28;20018;-59
2022/05/13 06:16:49;;;;;;;8.68;2.35;;;;;;;20.32;44.33;99752.47;4987927;28;20046;-58
2022/05/13 06:19:15;;;;;;;8.23;2.60;;;;;;;22.07;40.96;99769.34;5007094;28;20029;-58
2022/05/13 06:21:40;;;;;;;7.65;2.45;;;;;;;21.41;42.45;99766.00;5004623;28;20063;-59
2022/05/13 06:24:06;;;;;;;7.85;2.35;;;;;;;22.46;39.87;99770.66;5005810;28;20033;-59
2022/05/13 06:26:32;;;;;;;7.93;2.50;;;;;;;20.13;44.21;99774.22;5006399;28;20038;-59
2022/05/13 06:28:58;;;;;;;10.30;2.72;;;;;;;20.13;44.50;99770.69;4988790;28;20025;-59
2022/05/13 06:31:23;;;;;;;9.15;2.50;;;;;;;20.80;43.07;99765.94;5006924;28;20033;-59
2022/05/13 06:33:49;;;;;;;12.75;2.40;;;;;;;20.92;42.67;99768.19;5004956;28;20561;-59
2022/05/13 06:36:15;;;;;;;5.35;2.30;;;;;;;21.57;42.23;99777.41;5006362;28;20075;-59
2022/05/13 06:38:41;;;;;;;7.97;2.83;;;;;;;20.87;42.67;99776.47;4992982;28;20037;-58
2022/05/13 06:41:06;;;;;;;8.32;2.45;;;;;;;21.50;41.96;99778.63;4988315;28;20032;-58
2022/05/13 06:43:32;;;;;;;10.60;2.60;;;;;;;21.37;42.41;99775.84;5007022;28;20744;-58
2022/05/13 06:45:57;;;;;;;6.60;2.53;;;;;;;22.44;40.39;99784.66;4985646;28;20298;-59
2022/05/13 06:48:24;;;;;;;10.82;2.45;;;;;;;23.95;38.01;99782.19;4987379;28;20735;-59
2022/05/13 06:50:50;;;;;;;7.25;2.20;;;;;;;23.08;39.63;99783.69;4986379;28;20113;-59
2022/05/13 06:53:17;;;;;;;9.60;2.50;;;;;;;22.07;40.14;99774.78;4987413;28;20030;-58
2022/05/13 06:55:44;;;;;;;7.93;2.33;;;;;;;21.70;38.63;99782.09;4982807;28;20488;-59
2022/05/13 06:58:10;;;;;;;6.93;2.33;;;;;;;21.97;38.67;99781.28;4981996;28;20464;-58
2022/05/13 07:00:35;;;;;;;11.88;2.65;;;;;;;23.07;36.33;99780.16;4982106;28;20030;-59
2022/05/13 07:03:01;;;;;;;8.10;2.08;;;;;;;23.15;36.04;99781.34;4984316;28;20522;-59
2022/05/13 07:05:27;;;;;;;8.68;2.60;;;;;;;23.75;35.26;99783.56;4981137;28;20030;-59
2022/05/13 07:07:52;;;;;;;7.35;2.00;;;;;;;22.91;35.33;99785.16;4987972;28;20197;-59
2022/05/13 07:10:18;;;;;;;8.18;2.35;;;;;;;22.81;36.47;99788.16;4986428;28;20054;-59
2022/05/13 07:12:44;;;;;;;9.43;2.30;;;;;;;23.64;35.73;99787.69;4984963;28;20120;-59
2022/05/13 07:15:11;;;;;;;9.32;2.40;;;;;;;23.49;35.52;99786.19;4985575;28;20461;-58
2022/05/13 07:17:37;;;;;;;8.48;2.35;;;;;;;23.83;35.31;99781.97;4986938;28;20022;-59
2022/05/13 07:20:04;;;;;;;7.25;2.50;;;;;;;23.78;35.20;99796.63;4986748;28;20057;-58
2022/05/13 07:22:30;;;;;;;8.88;2.20;;;;;;;24.69;33.89;99789.56;4987169;28;20049;-58
2022/05/13 07:24:55;;;;;;;6.45;2.10;;;;;;;23.65;34.28;99797.50;4986055;28;20073;-59
2022/05/13 07:27:21;;;;;;;9.88;2.50;;;;;;;22.61;34.88;99793.00;4986745;28;20117;-59
2022/05/13 07:29:46;;;;;;;7.82;2.53;;;;;;;23.18;35.52;99797.91;4985524;28;20030;-58
2022/05/13 07:32:12;;;;;;;9.25;2.40;;;;;;;24.76;33.55;99800.00;4993096;28;20054;-58
2022/05/13 07:34:38;;;;;;;8.02;2.17;;;;;;;23.59;34.37;99805.06;4976387;28;20139;-59
2022/05/13 07:37:04;;;;;;;7.50;2.35;;;;;;;22.22;36.17;99806.44;4984321;28;20022;-58
2022/05/13 07:42:14;;;;;;;15.45;2.33;;;;;;;22.97;33.97;99807.72;4985232;28;20073;-58
2022/05/13 07:44:41;;;;;;;6.30;2.10;;;;;;;23.79;33.55;99816.56;4987759;28;20481;-58
2022/05/13 07:47:07;;;;;;;13.52;2.40;;;;;;;21.95;35.65;99799.88;5005253;28;20021;-58
2022/05/13 07:49:34;;;;;;;8.50;2.03;;;;;;;24.50;32.63;99803.56;5004831;28;20068;-58
2022/05/13 07:52:00;;;;;;;9.20;2.25;;;;;;;25.29;31.43;99811.75;4985468;28;20061;-58
2022/05/13 07:54:25;;;;;;;7.55;2.72;;;;;;;26.37;29.72;99814.19;5004935;28;20066;-58
2022/05/13 07:56:51;;;;;;;6.43;2.00;;;;;;;24.72;30.87;99816.31;5005715;28;20034;-58
2022/05/13 07:59:17;;;;;;;6.50;1.80;;;;;;;24.15;32.39;99824.59;5005409;28;20040;-58
2022/05/13 08:01:42;;;;;;;4.85;1.88;;;;;;;23.60;33.14;99811.34;5000759;28;20037;-58
2022/05/13 08:04:08;;;;;;;7.70;1.92;;;;;;;24.92;31.19;99814.84;4999165;28;20070;-58
2022/05/13 08:06:33;;;;;;;5.22;1.95;;;;;;;23.62;33.12;99812.63;5005025;28;20080;-58
2022/05/13 08:08:59;;;;;;;8.48;2.00;;;;;;;22.58;34.10;99823.63;5005739;28;20484;-58
2022/05/13 08:11:27;;;;;;;9.93;2.08;;;;;;;22.73;34.37;99817.03;4999897;28;20064;-58
2022/05/13 08:13:53;;;;;;;6.55;2.08;;;;;;;24.22;31.91;99821.41;5003160;28;20058;-58
2022/05/13 08:16:20;;;;;;;6.35;1.83;;;;;;;21.93;34.96;99815.72;5005152;28;20029;-58
2022/05/13 08:18:46;;;;;;;10.95;1.85;;;;;;;20.52;36.39;99814.00;5003872;28;20072;-58
2022/05/13 08:21:12;;;;;;;5.65;1.70;;;;;;;20.52;35.59;99824.88;5005374;28;20627;-58
2022/05/13 08:23:37;;;;;;;5.90;1.65;;;;;;;19.87;36.67;99825.44;5006147;28;20034;-58
2022/05/13 08:26:03;;;;;;;6.75;1.60;;;;;;;21.91;34.68;99823.41;5005931;28;20033;-57
2022/05/13 08:28:29;;;;;;;4.32;1.40;;;;;;;22.50;32.89;99824.38;5006225;28;20034;-58
2022/05/13 08:30:54;;;;;;;3.72;1.50;;;;;;;22.40;33.11;99819.94;4982244;28;20148;-58
2022/05/13 08:33:20;;;;;;;5.10;1.50;;;;;;;22.87;32.75;99825.19;4987840;28;20517;-58
2022/05/13 08:35:50;;;;;;;8.35;1.67;;;;;;;23.20;32.36;99817.56;5005114;28;20033;-58
2022/05/13 08:38:23;;;;;;;7.05;1.50;;;;;;;23.22;31.79;99817.25;5006024;28;20065;-58
2022/05/13 08:40:54;;;;;;;6.43;1.80;;;;;;;23.41;31.72;99817.84;4984567;28;20524;-58
2022/05/13 08:43:27;;;;;;;8.55;1.85;;;;;;;23.47;31.36;99827.53;5002987;28;20042;-58
2022/05/13 08:46:05;;;;;;;11.13;2.28;;;;;;;23.78;31.35;99826.72;5003146;28;20637;-58
2022/05/13 08:48:33;;;;;;;7.93;1.60;;;;;;;22.90;32.54;99829.22;4984574;28;20018;-58
2022/05/13 08:51:08;;;;;;;6.88;1.52;;;;;;;22.75;32.82;99833.91;5008494;28;20361;-58
2022/05/13 08:53:49;;;;;;;8.02;1.50;;;;;;;23.42;32.12;99832.31;5005311;28;20136;-60
2022/05/13 08:56:16;;;;;;;7.82;1.60;;;;;;;21.93;34.37;99832.09;4972538;28;20033;-58
2022/05/13 08:58:45;;;;;;;5.97;1.73;;;;;;;21.81;34.43;99837.25;5001401;28;20026;-58
2022/05/13 09:01:14;;;;;;;5.85;1.60;;;;;;;22.88;33.27;99829.50;4979209;28;20030;-58
2022/05/13 09:03:40;;;;;;;6.25;1.63;;;;;;;22.69;32.65;99839.78;4992642;28;20117;-58
2022/05/13 09:06:39;;;;;;;5.85;1.80;;;;;;;20.80;36.26;99830.50;5008461;28;20037;-58
2022/05/13 09:09:07;;;;;;;4.43;1.50;;;;;;;20.81;37.32;99822.03;4988620;28;20022;-57
2022/05/13 09:11:42;;;;;;;6.32;1.60;;;;;;;21.07;36.50;99829.81;5006205;28;20041;-58
2022/05/13 09:14:45;;;;;;;6.03;1.60;;;;;;;20.66;37.00;99827.69;4982484;28;20046;-57
2022/05/13 09:17:31;;;;;;;8.05;1.95;;;;;;;21.05;36.50;99823.84;5001063;28;20041;-58
2022/05/13 09:20:01;;;;;;;5.72;1.77;;;;;;;21.07;36.33;99825.16;5005202;28;20041;-57
2022/05/13 09:22:41;;;;;;;6.57;1.95;;;;;;;20.98;36.37;99823.41;5009678;28;20034;-58
2022/05/13 09:25:11;;;;;;;7.15;1.90;;;;;;;21.86;36.10;99826.22;5008119;28;20155;-57
2022/05/13 09:27:42;;;;;;;;;;;;;;;23.39;33.26;99830.22;4994247;28;20590;-58
2022/05/13 09:30:08;;;;;;;5.47;1.80;;;;;;;23.44;32.52;99827.34;5011849;28;19917;-58
2022/05/13 09:32:33;;;;;;;7.28;1.70;;;;;;;22.70;32.59;99825.03;4988840;28;20057;-57
2022/05/13 09:35:05;;;;;;;4.95;1.85;;;;;;;22.25;34.49;99817.56;5000543;28;20087;-57
2022/05/13 09:37:37;;;;;;;4.63;1.63;;;;;;;23.27;34.12;99817.13;4992847;28;20018;-58
2022/05/13 09:40:06;;;;;;;6.82;1.60;;;;;;;23.81;32.42;99820.63;4984887;28;20042;-58
2022/05/13 09:42:39;;;;;;;5.57;1.60;;;;;;;24.56;31.77;99817.09;5007174;28;20061;-57
2022/05/13 09:45:22;;;;;;;6.50;1.60;;;;;;;23.47;31.87;99811.09;4981225;28;20081;-58
2022/05/13 09:48:04;;;;;;;5.07;1.50;;;;;;;23.00;33.81;99818.88;4999072;28;20379;-57
2022/05/13 09:50:41;;;;;;;3.38;1.48;;;;;;;22.08;34.17;99812.69;5010259;28;20701;-58
2022/05/13 09:53:23;;;;;;;7.70;1.83;;;;;;;21.97;34.63;99816.75;4991672;28;20473;-58
2022/05/13 09:55:53;;;;;;;16.42;2.65;;;;;;;21.69;34.95;99818.63;4989184;28;20040;-58
2022/05/13 09:58:50;;;;;;;8.32;1.75;;;;;;;21.75;35.39;99812.00;4965618;28;20037;-58
2022/05/13 10:01:17;;;;;;;5.38;1.63;;;;;;;23.00;32.84;99809.88;4995790;28;20042;-58
2022/05/13 10:03:43;;;;;;;5.18;1.52;;;;;;;22.73;34.24;99810.75;4969143;28;20044;-57
2022/05/13 10:06:11;;;;;;;5.97;1.80;;;;;;;21.11;36.27;99801.63;4980804;28;20337;-57
2022/05/13 10:08:41;;;;;;;26.02;2.95;;;;;;;22.94;34.00;99798.22;5007937;28;20084;-58
2022/05/13 10:13:59;;;;;;;4.68;1.50;;;;;;;25.25;30.63;99802.56;5006809;28;20859;-58
2022/05/13 10:16:28;;;;;;;7.22;1.70;;;;;;;23.93;31.66;99795.38;4990532;28;20472;-58
2022/05/13 10:18:57;;;;;;;5.10;1.40;;;;;;;23.75;31.09;99794.53;5006992;28;20057;-58
2022/05/13 10:21:29;;;;;;;6.18;1.85;;;;;;;24.50;30.08;99798.09;4988605;28;20037;-57
2022/05/13 10:23:58;;;;;;;5.55;1.50;;;;;;;24.50;29.72;99791.81;5006714;28;20040;-57
2022/05/13 10:26:40;;;;;;;5.43;1.75;;;;;;;23.52;30.87;99788.28;4988520;28;20042;-59
2022/05/13 10:29:31;;;;;;;3.80;1.55;;;;;;;24.02;29.77;99788.00;4972577;28;20041;-59
2022/05/13 10:31:56;;;;;;;7.30;1.98;;;;;;;22.91;30.67;99790.63;5005125;28;20037;-59
2022/05/13 10:34:33;;;;;;;2.45;1.40;;;;;;;23.48;30.81;99790.81;5006804;28;20038;-59
2022/05/13 10:37:10;;;;;;;4.68;2.03;;;;;;;23.69;30.83;99790.28;5005113;28;20038;-58
2022/05/13 10:39:46;;;;;;;4.28;1.70;;;;;;;23.33;30.32;99782.22;4990786;28;20021;-58
2022/05/13 10:42:30;;;;;;;6.95;1.60;;;;;;;22.29;32.05;99793.16;4998268;28;20045;-58
2022/05/13 10:45:20;;;;;;;6.68;1.98;;;;;;;22.69;32.23;99785.16;5007332;28;20081;-58
2022/05/13 10:47:52;;;;;;;4.20;1.80;;;;;;;23.28;31.80;99787.84;4975811;28;20084;-58
2022/05/13 10:50:23;;;;;;;5.50;1.60;;;;;;;21.16;34.35;99778.94;4988983;28;20112;-57
2022/05/13 10:52:58;;;;;;;4.32;1.58;;;;;;;21.68;33.55;99787.03;5005616;28;20061;-58
2022/05/13 10:55:59;;;;;;;6.32;1.80;;;;;;;22.95;32.21;99782.63;4989688;28;20053;-57
2022/05/13 10:58:43;;;;;;;5.30;1.25;;;;;;;23.02;32.90;99786.56;4986417;28;20049;-58
2022/05/13 11:01:31;;;;;;;3.42;1.70;;;;;;;22.97;31.84;99786.69;5006373;28;20026;-61
2022/05/13 11:04:10;;;;;;;3.33;1.40;;;;;;;23.53;31.67;99773.47;5006990;28;20086;-59
2022/05/13 11:06:42;;;;;;;6.07;1.80;;;;;;;22.00;33.23;99769.75;5006695;28;20506;-58
2022/05/13 11:09:30;;;;;;;4.75;1.55;;;;;;;21.86;34.99;99774.41;5002311;28;20049;-58
2022/05/13 11:12:23;;;;;;;33.28;4.80;;;;;;;22.93;32.20;99766.53;5001641;28;20113;-58
2022/05/13 11:15:15;;;;;;;4.18;1.48;;;;;;;23.15;31.63;99776.66;4982721;28;20661;-58
2022/05/13 11:18:05;;;;;;;3.30;1.40;;;;;;;23.48;31.21;99766.22;5001608;28;20049;-58
2022/05/13 11:20:57;;;;;;;2.70;1.20;;;;;;;23.31;31.51;99773.53;4982378;28;20064;-58
2022/05/13 11:23:38;;;;;;;4.03;1.35;;;;;;;23.53;31.41;99776.22;4963632;28;20029;-58
2022/05/13 11:26:19;;;;;;;6.72;1.60;;;;;;;23.63;31.92;99770.44;4983312;28;20070;-57
2022/05/13 11:29:02;;;;;;;5.10;1.50;;;;;;;24.21;31.85;99768.56;5004831;28;20046;-58
2022/05/13 11:31:49;;;;;;;7.75;1.50;;;;;;;24.06;30.93;99772.56;5006131;28;20053;-58
2022/05/13 11:34:41;;;;;;;3.22;1.30;;;;;;;24.03;30.19;99764.16;4986064;28;20084;-58
2022/05/13 11:37:09;;;;;;;4.88;1.30;;;;;;;23.87;32.02;99755.59;4991147;28;20022;-57
2022/05/13 11:40:03;;;;;;;7.43;1.83;;;;;;;23.96;31.52;99761.09;4989634;28;20054;-57
2022/05/13 11:43:18;;;;;;;7.75;1.25;;;;;;;22.71;32.04;99759.13;5003083;28;20038;-57
2022/05/13 11:46:10;;;;;;;4.80;1.60;;;;;;;23.56;32.01;99761.09;5003854;28;20377;-58
2022/05/13 11:48:37;;;;;;;4.80;1.52;;;;;;;22.82;31.83;99751.53;4994013;28;20042;-58
2022/05/13 11:51:28;;;;;;;4.00;1.40;;;;;;;23.98;30.55;99754.16;5006325;28;20018;-58
2022/05/13 11:54:20;;;;;;;9.35;2.13;;;;;;;23.65;31.28;99761.94;4986572;28;20479;-57
2022/05/13 11:56:46;;;;;;;3.00;1.50;;;;;;;24.37;30.00;99760.66;4997077;28;20031;-58
2022/05/13 11:59:21;;;;;;;6.53;1.30;;;;;;;24.21;29.55;99754.03;4987740;28;20048;-58
2022/05/13 12:01:46;;;;;;;3.38;1.42;;;;;;;23.99;31.12;99749.50;5004689;28;20088;-58
2022/05/13 12:04:16;;;;;;;5.35;1.38;;;;;;;23.77;29.38;99750.44;5005770;28;20029;-58
2022/05/13 12:06:50;;;;;;;3.65;1.40;;;;;;;23.73;31.20;99750.25;5005707;28;20034;-58